createdAt,value
2022-11-29T07:11:35.403Z,0.25
2022-11-29T07:14:04.374Z,0.16
2022-11-29T07:16:57.651Z,0.19
2022-11-29T07:19:45.641Z,0.08
2022-11-29T07:22:53.385Z,0.28
2022-11-29T07:25:44.803Z,0.40
2022-11-29T07:28:43.510Z,0.34
2022-11-29T07:31:50.515Z,0.38
2022-11-29T07:40:24.257Z,0.23
2022-11-29T08:02:57.160Z,0.49
2022-11-29T08:05:32.097Z,0.49
2022-11-29T08:08:11.754Z,0.57
2022-11-29T08:10:50.714Z,0.55
2022-11-29T08:13:25.018Z,0.52
2022-11-29T08:15:53.539Z,0.44
2022-11-29T08:18:22.551Z,0.44
2022-11-29T08:21:00.996Z,0.48
2022-11-29T08:23:29.544Z,0.60
2022-11-29T08:26:04.616Z,0.52
2022-11-29T08:28:33.129Z,0.72
2022-11-29T08:31:05.350Z,0.68
2022-11-29T08:33:38.135Z,0.43
2022-11-29T08:36:18.734Z,0.61
2022-11-29T08:38:47.720Z,0.54
2022-11-29T08:41:17.887Z,0.73
2022-11-29T08:43:49.369Z,0.77
2022-11-29T08:46:18.926Z,0.73
2022-11-29T08:48:48.732Z,0.85
2022-11-29T08:51:21.659Z,0.76
2022-11-29T08:53:51.817Z,0.97
2022-11-29T08:57:10.068Z,0.95
2022-11-29T08:59:10.608Z,0.97
2022-11-29T09:01:40.613Z,0.95
2022-11-29T09:04:18.957Z,0.80
2022-11-29T09:06:49.789Z,1.02
2022-11-29T09:09:19.502Z,1.05
2022-11-29T09:11:49.726Z,1.06
2022-11-29T09:14:23.575Z,1.12
2022-11-29T09:17:06.285Z,1.10
2022-11-29T09:19:35.090Z,1.11
2022-11-29T09:22:04.097Z,0.92
2022-11-29T09:24:50.521Z,0.97
2022-11-29T09:27:29.642Z,1.18
2022-11-29T09:30:02.209Z,1.28
2022-11-29T09:32:32.331Z,1.14
2022-11-29T09:35:04.762Z,1.27
2022-11-29T09:37:37.193Z,1.34
2022-11-29T09:40:05.833Z,1.24
2022-11-29T09:43:22.026Z,1.20
2022-11-29T09:46:18.397Z,1.45
2022-11-29T09:49:08.958Z,1.46
2022-11-29T09:52:04.818Z,1.55
2022-11-29T09:55:02.047Z,1.64
2022-11-29T09:57:40.463Z,1.52
2022-11-29T10:00:22.919Z,1.48
2022-11-29T10:03:52.023Z,1.58
2022-11-29T10:06:40.189Z,1.44
2022-11-29T10:09:33.518Z,1.59
2022-11-29T10:12:32.824Z,1.42
2022-11-29T10:15:14.219Z,1.48
2022-11-29T10:17:51.511Z,1.29
2022-11-29T10:20:21.667Z,1.28
2022-11-29T10:23:05.304Z,1.51
2022-11-29T10:25:47.867Z,1.77
2022-11-29T10:28:26.550Z,1.67
2022-11-29T10:30:57.211Z,1.64
2022-11-29T10:33:35.370Z,1.58
2022-11-29T10:36:15.487Z,1.44
2022-11-29T10:38:46.614Z,1.46
2022-11-29T10:41:22.533Z,1.66
2022-11-29T10:43:52.157Z,1.53
2022-11-29T10:46:40.424Z,1.63
2022-11-29T10:49:17.693Z,1.48
2022-11-29T10:51:49.089Z,1.81
2022-11-29T10:54:42.165Z,1.77
2022-11-29T10:57:22.421Z,1.93
2022-11-29T11:00:00.551Z,1.27
2022-11-29T11:02:29.094Z,1.77
2022-11-29T11:04:58.973Z,1.63
2022-11-29T11:07:35.288Z,1.85
2022-11-29T11:10:35.358Z,1.85
2022-11-29T11:13:07.061Z,1.88
2022-11-29T11:15:35.481Z,1.73
2022-11-29T11:18:21.539Z,1.62
2022-11-29T11:20:57.668Z,1.93
2022-11-29T11:23:32.174Z,2.05
2022-11-29T11:26:26.163Z,1.99
2022-11-29T11:29:18.771Z,2.06
2022-11-29T11:31:56.881Z,2.00
2022-11-29T11:34:27.590Z,1.79
2022-11-29T11:37:38.343Z,1.87
2022-11-29T11:40:35.678Z,2.09
2022-11-29T11:43:29.016Z,1.89
2022-11-29T11:46:05.121Z,1.87
2022-11-29T11:48:57.643Z,2.02
2022-11-29T11:51:34.229Z,1.96
2022-11-29T11:54:04.629Z,2.00
2022-11-29T11:56:36.115Z,2.08
2022-11-29T11:59:04.635Z,2.15
2022-11-29T12:01:39.830Z,1.26
2022-11-29T12:04:15.822Z,2.06
2022-11-29T12:07:03.510Z,1.96
2022-11-29T12:09:56.052Z,1.77
2022-11-29T12:12:32.588Z,1.81
2022-11-29T12:15:05.219Z,1.97
2022-11-29T12:18:19.166Z,1.69
2022-11-29T12:20:57.359Z,1.61
2022-11-29T12:23:31.294Z,1.85
2022-11-29T12:26:34.474Z,1.85
2022-11-29T12:29:18.850Z,1.99
2022-11-29T12:32:14.451Z,2.02
2022-11-29T12:35:31.718Z,1.99
2022-11-29T12:38:06.697Z,1.49
2022-11-29T12:40:59.617Z,1.98
2022-11-29T12:43:56.616Z,2.00
2022-11-29T12:46:28.351Z,2.00
2022-11-29T12:49:13.171Z,1.97
2022-11-29T12:52:02.707Z,2.08
2022-11-29T12:55:00.188Z,1.92
2022-11-29T12:58:03.962Z,1.97
2022-11-29T13:00:47.885Z,2.10
2022-11-29T13:03:33.793Z,2.04
2022-11-29T13:06:16.930Z,1.94
2022-11-29T13:09:22.348Z,1.88
2022-11-29T13:12:06.114Z,2.09
2022-11-29T13:14:44.432Z,2.17
2022-11-29T13:17:52.339Z,2.08
2022-11-29T13:20:43.005Z,2.21
2022-11-29T13:24:07.322Z,2.11
2022-11-29T13:26:30.768Z,1.97
2022-11-29T13:29:01.536Z,1.97
2022-11-29T13:31:30.912Z,1.92
2022-11-29T13:34:41.296Z,1.80
2022-11-29T13:37:38.952Z,1.94
2022-11-29T13:40:24.076Z,1.90
2022-11-29T13:43:33.259Z,1.96
2022-11-29T13:46:28.354Z,1.89
2022-11-29T13:48:59.634Z,1.90
2022-11-29T13:51:41.512Z,1.87
2022-11-29T13:54:31.062Z,1.99
2022-11-29T13:57:09.947Z,1.84
2022-11-29T13:59:47.273Z,1.88
2022-11-29T14:02:36.449Z,1.90
2022-11-29T14:05:08.029Z,1.60
2022-11-29T14:08:26.106Z,1.74
2022-11-29T14:11:14.342Z,1.53
2022-11-29T14:17:05.743Z,1.71
2022-11-29T14:19:37.630Z,1.72
2022-11-29T14:22:24.323Z,1.75
2022-11-29T14:25:16.344Z,1.78
2022-11-29T14:28:12.913Z,1.76
2022-11-29T14:30:46.787Z,1.71
2022-11-29T14:33:37.988Z,1.66
2022-11-29T14:36:15.277Z,1.71
2022-11-29T14:39:07.845Z,1.68
2022-11-29T14:42:14.958Z,1.70
2022-11-29T14:44:56.467Z,1.76
2022-11-29T14:47:47.208Z,1.69
2022-11-29T14:50:40.406Z,1.71
2022-11-29T14:53:30.969Z,1.80
2022-11-29T14:59:49.614Z,1.81
2022-11-29T15:02:48.697Z,1.66
2022-11-29T15:06:07.438Z,1.75
2022-11-29T15:08:54.817Z,1.71
2022-11-29T15:11:46.793Z,1.68
2022-11-29T15:14:39.725Z,1.70
2022-11-29T15:17:22.978Z,1.80
2022-11-29T15:20:43.457Z,1.85
2022-11-29T15:23:24.123Z,1.82
2022-11-29T15:26:23.378Z,1.88
2022-11-29T15:29:30.226Z,1.83
2022-11-29T15:32:04.209Z,1.92
2022-11-29T15:34:50.532Z,1.96
2022-11-29T15:37:40.552Z,1.81
2022-11-29T15:43:35.524Z,2.03
2022-11-29T15:46:03.784Z,2.05
2022-11-29T15:48:33.460Z,2.05
2022-11-29T15:51:45.520Z,2.01
2022-11-29T15:54:29.263Z,1.57
2022-11-29T15:57:03.039Z,2.07
2022-11-29T15:59:55.505Z,1.89
2022-11-29T16:02:46.319Z,2.12
2022-11-29T16:05:31.247Z,1.99
2022-11-29T16:08:25.251Z,2.07
2022-11-29T16:11:06.745Z,2.02
2022-11-29T16:13:37.135Z,1.86
2022-11-29T16:16:37.641Z,2.12
2022-11-29T16:19:45.008Z,2.10
2022-11-29T16:22:24.842Z,2.07
2022-11-29T16:25:16.512Z,2.02
2022-11-29T16:28:12.406Z,1.68
2022-11-29T16:30:44.724Z,2.06
2022-11-29T16:33:23.857Z,1.92
2022-11-29T16:36:15.462Z,2.08
2022-11-29T16:38:54.566Z,1.82
2022-11-29T16:41:46.479Z,1.94
2022-11-29T16:45:06.827Z,2.09
2022-11-29T16:47:58.957Z,2.08
2022-11-29T16:50:29.628Z,1.85
2022-11-29T16:53:50.460Z,2.08
2022-11-29T16:56:39.333Z,2.15
2022-11-29T16:59:25.906Z,1.99
2022-11-29T17:02:03.871Z,1.78
2022-11-29T17:04:32.024Z,1.95
2022-11-29T17:07:16.649Z,1.91
2022-11-29T17:09:44.718Z,1.72
2022-11-29T17:12:47.961Z,1.88
2022-11-29T17:15:38.698Z,1.57
2022-11-29T17:18:06.914Z,1.68
2022-11-29T17:20:41.533Z,1.79
2022-11-29T17:23:10.032Z,1.85
2022-11-29T17:25:41.505Z,1.71
2022-11-29T17:28:37.033Z,1.59
2022-11-29T17:31:34.213Z,1.49
2022-11-29T17:34:15.250Z,1.59
2022-11-29T17:36:49.943Z,1.32
2022-11-29T17:42:16.113Z,1.54
2022-11-29T17:44:44.346Z,1.63
2022-11-29T17:47:13.805Z,1.61
2022-11-29T17:49:48.755Z,1.54
2022-11-29T17:52:23.507Z,1.52
2022-11-29T17:54:58.438Z,1.54
2022-11-29T17:57:34.535Z,1.48
2022-11-29T18:00:06.435Z,1.58
2022-11-29T18:02:45.536Z,1.52
2022-11-29T18:05:13.630Z,1.35
2022-11-29T18:08:00.151Z,1.46
2022-11-29T18:10:34.305Z,1.20
2022-11-29T18:13:02.687Z,1.30
2022-11-29T18:15:32.992Z,1.30
2022-11-29T18:18:24.209Z,1.16
2022-11-29T18:20:56.856Z,1.32
2022-11-29T18:23:39.811Z,1.35
2022-11-29T18:34:29.744Z,1.32
2022-11-29T18:37:18.030Z,1.38
2022-11-29T18:40:23.676Z,0.81
2022-11-29T18:42:52.208Z,1.12
2022-11-29T18:45:40.289Z,1.34
2022-11-29T18:51:16.605Z,1.42
2022-11-29T18:56:36.401Z,1.47
2022-11-29T18:59:17.814Z,1.41
2022-11-29T19:02:02.543Z,1.50
2022-11-29T19:04:31.472Z,1.31
2022-11-29T19:06:59.645Z,1.34
2022-11-29T19:09:54.418Z,1.44
2022-11-29T19:12:23.039Z,1.37
2022-11-29T19:14:51.704Z,1.35
2022-11-29T19:17:23.952Z,1.51
2022-11-29T19:19:56.351Z,1.58
2022-11-29T19:22:24.459Z,1.59
2022-11-29T19:25:00.762Z,1.65
2022-11-29T19:27:43.843Z,1.51
2022-11-29T19:30:15.621Z,1.68
2022-11-29T19:33:14.313Z,1.70
2022-11-29T19:35:42.573Z,1.08
2022-11-29T19:38:10.974Z,1.71
2022-11-29T19:40:39.650Z,1.54
2022-11-29T19:43:14.576Z,1.71
2022-11-29T19:46:41.036Z,1.77
2022-11-29T19:49:27.517Z,1.42
2022-11-29T19:52:04.194Z,1.73
2022-11-29T19:54:35.970Z,1.76
2022-11-29T19:57:04.266Z,1.71
2022-11-29T19:59:56.222Z,1.71
2022-11-29T20:02:25.161Z,1.67
2022-11-29T20:04:53.798Z,1.63
2022-11-29T20:07:21.865Z,1.72
2022-11-29T20:09:54.755Z,1.76
2022-11-29T20:12:31.147Z,1.65
2022-11-29T20:15:01.054Z,1.63
2022-11-29T20:17:34.266Z,1.75
2022-11-29T20:20:02.594Z,1.72
2022-11-29T20:22:31.069Z,1.65
2022-11-29T20:24:59.294Z,1.75
2022-11-29T20:27:30.014Z,1.66
2022-11-29T20:30:11.691Z,1.59
2022-11-29T20:32:40.222Z,1.79
2022-11-29T20:35:11.880Z,1.68
2022-11-29T20:38:30.588Z,1.79
2022-11-29T20:41:06.262Z,1.75
2022-11-29T20:43:44.341Z,1.64
2022-11-29T20:46:47.277Z,1.78
2022-11-29T20:49:17.449Z,1.47
2022-11-29T20:52:02.581Z,1.79
2022-11-29T20:55:00.983Z,1.55
2022-11-29T20:57:29.711Z,1.46
2022-11-29T21:00:40.255Z,1.62
2022-11-29T21:03:26.626Z,1.73
2022-11-29T21:06:08.409Z,1.56
2022-11-29T21:08:36.832Z,1.79
2022-11-29T21:11:15.876Z,1.81
2022-11-29T21:13:55.934Z,1.91
2022-11-29T21:16:29.101Z,1.82
2022-11-29T21:19:25.207Z,1.97
2022-11-29T21:22:24.176Z,1.98
2022-11-29T21:25:33.877Z,2.06
2022-11-29T21:28:15.678Z,1.97
2022-11-29T21:33:45.692Z,2.01
2022-11-29T21:36:19.334Z,1.88
2022-11-29T21:39:08.618Z,1.95
2022-11-29T21:44:36.595Z,2.09
2022-11-29T21:47:04.857Z,2.06
2022-11-29T21:49:52.967Z,2.08
2022-11-29T21:52:32.739Z,2.00
2022-11-29T21:55:01.403Z,1.56
2022-11-29T22:00:47.983Z,1.99
2022-11-29T22:03:28.901Z,2.13
2022-11-29T22:06:20.853Z,2.08
2022-11-29T22:09:19.038Z,1.82
2022-11-29T22:12:32.383Z,2.10
2022-11-29T22:15:04.999Z,1.80
2022-11-29T22:17:36.644Z,2.07
2022-11-29T22:20:16.327Z,2.02
2022-11-29T22:22:45.398Z,2.26
2022-11-29T22:25:13.350Z,2.16
2022-11-29T22:27:58.260Z,2.26
2022-11-29T22:30:36.249Z,1.88
2022-11-29T22:33:08.959Z,2.19
2022-11-29T22:36:22.145Z,2.26
2022-11-29T22:39:06.829Z,2.23
2022-11-29T22:41:39.557Z,2.19
2022-11-29T22:44:08.357Z,2.19
2022-11-29T22:46:54.346Z,2.07
2022-11-29T22:49:33.281Z,2.18
2022-11-29T22:52:03.922Z,2.24
2022-11-29T22:54:31.939Z,2.14
2022-11-29T22:57:00.291Z,2.07
2022-11-29T22:59:28.978Z,2.19
2022-11-29T23:02:03.479Z,1.60
2022-11-29T23:04:45.979Z,2.30
2022-11-29T23:07:15.056Z,2.29
2022-11-29T23:09:43.377Z,2.19
2022-11-29T23:12:21.655Z,2.30
2022-11-29T23:14:55.835Z,2.01
2022-11-29T23:17:36.586Z,2.35
2022-11-29T23:20:12.525Z,2.35
2022-11-29T23:22:57.651Z,2.38
2022-11-29T23:25:50.327Z,2.47
2022-11-29T23:28:26.204Z,2.45
2022-11-29T23:31:15.788Z,2.43
2022-11-29T23:33:59.315Z,2.09
2022-11-29T23:36:59.272Z,2.45
2022-11-29T23:39:27.478Z,2.40
2022-11-29T23:42:00.699Z,2.28
2022-11-29T23:44:42.953Z,2.47
2022-11-29T23:47:21.499Z,2.50
2022-11-29T23:50:09.159Z,2.52
2022-11-29T23:52:41.115Z,2.25
2022-11-29T23:55:29.250Z,2.52
2022-11-29T23:58:07.461Z,2.48
